Time;durP1;ratioP1;P1;durP2;ratioP2;P2;SDS_P1;SDS_P2;PMS_P1;PMS_P2;Temp;Humidity;BMP_temperature;BMP_pressure;BME280_temperature;BME280_humidity;BME280_pressure;Samples;Min_cycle;Max_cycle;Signal;HPM_P1;HPM_P2
2024/03/31 00:02:04;;;;;;;32.07;10.67;;;14.70;38.80;;;;;;5037935;28;20227;-62
2024/03/31 00:04:29;;;;;;;35.17;10.60;;;14.80;39.80;;;;;;5038198;28;20210;-62
2024/03/31 00:06:56;;;;;;;27.00;9.00;;;14.80;39.90;;;;;;5034301;28;20722;-62
2024/03/31 00:09:22;;;;;;;24.57;9.53;;;14.70;40.60;;;;;;5033831;28;20217;-61
2024/03/31 00:11:48;;;;;;;36.33;10.33;;;14.70;41.20;;;;;;5037594;28;20223;-62
2024/03/31 00:14:14;;;;;;;30.27;9.73;;;;;;;;;;5038068;28;20220;-62
2024/03/31 00:16:41;;;;;;;35.33;9.40;;;13.90;42.80;;;;;;5038597;28;20212;-62
2024/03/31 00:19:06;;;;;;;32.47;9.10;;;14.30;42.80;;;;;;5037228;28;20212;-62
2024/03/31 00:21:33;;;;;;;33.50;10.67;;;14.50;42.20;;;;;;5039400;28;20315;-62
2024/03/31 00:23:59;;;;;;;30.17;9.80;;;14.50;42.10;;;;;;5034502;28;20272;-62
2024/03/31 00:26:26;;;;;;;27.57;10.20;;;;;;;;;;5032470;28;20245;-61
2024/03/31 00:28:51;;;;;;;35.03;9.83;;;14.20;43.00;;;;;;5029584;28;20227;-62
2024/03/31 00:31:18;;;;;;;28.23;9.20;;;14.40;43.30;;;;;;5039150;28;20284;-62
2024/03/31 00:33:43;;;;;;;29.90;10.10;;;14.00;43.40;;;;;;5038406;28;20215;-62
2024/03/31 00:36:10;;;;;;;27.30;8.53;;;14.20;43.60;;;;;;5038268;28;20216;-61
2024/03/31 00:38:36;;;;;;;23.40;8.83;;;14.30;43.50;;;;;;5038576;28;20213;-62
2024/03/31 00:41:02;;;;;;;28.97;9.30;;;14.40;43.50;;;;;;5037903;28;20232;-62
2024/03/31 00:43:28;;;;;;;33.00;9.80;;;14.50;42.90;;;;;;5033968;28;20238;-62
2024/03/31 00:45:55;;;;;;;31.33;10.13;;;14.20;43.50;;;;;;5028097;28;20294;-61
2024/03/31 00:48:20;;;;;;;37.23;9.80;;;14.10;43.50;;;;;;5038607;28;20211;-62
2024/03/31 00:50:47;;;;;;;34.83;10.30;;;14.20;43.60;;;;;;5037682;28;20235;-61
2024/03/31 00:53:12;;;;;;;30.53;9.37;;;14.10;43.50;;;;;;5034558;28;20232;-61
2024/03/31 00:55:39;;;;;;;29.07;9.53;;;14.20;43.60;;;;;;5037865;28;20201;-61
2024/03/31 00:58:04;;;;;;;32.47;9.57;;;14.10;43.60;;;;;;5036742;28;20220;-62
2024/03/31 01:00:32;;;;;;;28.27;9.00;;;14.00;44.30;;;;;;5028987;28;20223;-62
2024/03/31 01:02:58;;;;;;;33.87;8.63;;;14.10;44.10;;;;;;5025767;28;20237;-61
2024/03/31 01:05:24;;;;;;;27.37;9.07;;;14.10;44.10;;;;;;5036629;28;20234;-61
2024/03/31 01:07:50;;;;;;;32.97;9.10;;;13.90;44.20;;;;;;5041253;28;20214;-61
2024/03/31 01:10:16;;;;;;;31.50;8.33;;;13.90;44.10;;;;;;5033712;28;20203;-62
2024/03/31 01:12:43;;;;;;;27.33;8.43;;;14.00;44.60;;;;;;5036958;28;20259;-61
2024/03/31 01:15:09;;;;;;;27.97;9.10;;;14.10;44.40;;;;;;5037674;28;20222;-62
2024/03/31 01:17:36;;;;;;;23.57;8.47;;;14.10;44.40;;;;;;5036756;28;20210;-62
2024/03/31 01:20:01;;;;;;;25.40;8.27;;;14.00;43.80;;;;;;5036164;28;20224;-62
2024/03/31 01:22:28;;;;;;;32.40;10.23;;;13.90;44.60;;;;;;5035775;28;20706;-62
2024/03/31 01:24:53;;;;;;;28.23;9.23;;;13.30;46.00;;;;;;5036034;28;20216;-62
2024/03/31 01:27:21;;;;;;;28.93;9.77;;;;;;;;;;5027812;28;20286;-62
2024/03/31 01:29:47;;;;;;;39.60;11.67;;;;;;;;;;5023360;28;20205;-61
2024/03/31 01:32:13;;;;;;;36.83;10.87;;;13.00;45.30;;;;;;5035814;28;20244;-62
2024/03/31 01:34:40;;;;;;;34.10;11.23;;;;;;;;;;5035887;28;20669;-62
2024/03/31 01:37:07;;;;;;;28.83;10.90;;;13.00;88.10;;;;;;5036769;28;20206;-61
2024/03/31 01:39:33;;;;;;;32.17;10.50;;;;;;;;;;5027302;28;20301;-62
2024/03/31 01:42:00;;;;;;;33.13;8.93;;;;;;;;;;5035198;28;20226;-62
2024/03/31 01:44:26;;;;;;;24.20;8.50;;;;;;;;;;5035639;28;20684;-61
2024/03/31 01:46:53;;;;;;;29.57;9.33;;;13.00;43.30;;;;;;5035914;28;20632;-62
2024/03/31 01:49:18;;;;;;;22.57;7.47;;;13.00;43.40;;;;;;5035865;28;20687;-61
2024/03/31 01:51:45;;;;;;;22.17;6.73;;;12.90;43.50;;;;;;5035160;28;20601;-61
2024/03/31 01:54:10;;;;;;;18.37;5.33;;;13.10;42.60;;;;;;5035147;28;20220;-62
2024/03/31 01:56:37;;;;;;;20.13;6.10;;;13.00;42.90;;;;;;5030352;28;20664;-61
2024/03/31 01:59:03;;;;;;;24.93;6.63;;;12.90;42.50;;;;;;5034663;28;20246;-61
2024/03/31 02:01:30;;;;;;;22.67;5.60;;;13.00;42.60;;;;;;5034751;28;20233;-61
2024/03/31 02:03:55;;;;;;;17.57;5.67;;;12.90;42.60;;;;;;5034671;28;20277;-61
2024/03/31 02:06:22;;;;;;;21.13;5.97;;;12.90;42.50;;;;;;5035035;28;20229;-61
2024/03/31 02:08:49;;;;;;;22.23;5.73;;;12.80;42.40;;;;;;5035061;28;20549;-62
2024/03/31 02:11:16;;;;;;;16.93;5.20;;;12.80;42.50;;;;;;5035059;28;20279;-61
2024/03/31 02:13:41;;;;;;;19.00;5.70;;;12.90;42.50;;;;;;5018664;28;20669;-62
2024/03/31 02:16:08;;;;;;;20.13;5.63;;;12.80;42.60;;;;;;5028260;28;20212;-60
2024/03/31 02:18:33;;;;;;;25.60;6.40;;;12.70;42.90;;;;;;5033144;28;20697;-62
2024/03/31 02:21:00;;;;;;;16.03;4.90;;;;;;;;;;5034798;28;20229;-62
2024/03/31 02:23:26;;;;;;;26.00;5.43;;;12.70;42.30;;;;;;5036333;28;20727;-61
2024/03/31 02:25:53;;;;;;;20.03;5.50;;;12.80;42.70;;;;;;5034889;28;20212;-62
2024/03/31 02:28:18;;;;;;;20.87;4.97;;;12.70;42.30;;;;;;5034342;28;20214;-61
2024/03/31 02:30:45;;;;;;;17.60;5.23;;;12.60;43.40;;;;;;5031889;28;20211;-61
2024/03/31 02:33:11;;;;;;;23.33;5.30;;;12.80;43.20;;;;;;5038610;28;20913;-62
2024/03/31 02:35:37;;;;;;;20.50;4.73;;;12.90;42.70;;;;;;5027528;28;20289;-62
2024/03/31 02:38:03;;;;;;;19.17;5.57;;;12.20;43.90;;;;;;5035296;28;20244;-61
2024/03/31 02:40:29;;;;;;;19.33;5.10;;;12.50;46.10;;;;;;5035035;28;20240;-61
2024/03/31 02:42:55;;;;;;;22.20;4.57;;;12.60;53.40;;;;;;5033966;28;20321;-62
2024/03/31 02:45:22;;;;;;;26.03;5.30;;;12.80;42.90;;;;;;5034827;28;20238;-62
2024/03/31 02:47:47;;;;;;;17.57;5.10;;;12.20;44.00;;;;;;5039386;28;20236;-62
2024/03/31 02:50:14;;;;;;;22.57;5.03;;;12.30;44.50;;;;;;5030603;28;20240;-61
2024/03/31 02:52:39;;;;;;;19.53;6.30;;;12.40;44.10;;;;;;5033508;28;20227;-61
2024/03/31 02:55:06;;;;;;;16.87;5.37;;;12.40;44.00;;;;;;5037775;28;20220;-62
2024/03/31 02:57:32;;;;;;;18.40;5.00;;;12.40;44.50;;;;;;5037907;28;20249;-61
2024/03/31 02:59:58;;;;;;;19.97;5.17;;;12.80;43.90;;;;;;5038229;28;20198;-61
2024/03/31 03:02:24;;;;;;;22.93;5.47;;;12.60;43.90;;;;;;5036580;28;20241;-62
2024/03/31 03:04:50;;;;;;;23.70;5.20;;;12.60;43.90;;;;;;5034506;28;20660;-61
2024/03/31 03:07:16;;;;;;;17.20;4.40;;;12.50;44.20;;;;;;5028352;28;20781;-61
2024/03/31 03:09:42;;;;;;;16.60;4.70;;;12.70;43.90;;;;;;5027956;28;20295;-61
2024/03/31 03:12:08;;;;;;;23.10;5.07;;;12.40;44.50;;;;;;5034345;28;20221;-61
2024/03/31 03:14:35;;;;;;;16.80;4.40;;;12.50;44.40;;;;;;5041982;28;20599;-61
2024/03/31 03:17:00;;;;;;;17.57;4.60;;;12.30;45.00;;;;;;5033808;28;20728;-62
2024/03/31 03:19:27;;;;;;;14.10;4.77;;;12.30;44.90;;;;;;5034519;28;20248;-67
2024/03/31 03:21:53;;;;;;;18.80;5.27;;;12.20;45.30;;;;;;5036661;28;20232;-61
2024/03/31 03:24:19;;;;;;;11.93;4.63;;;12.20;45.20;;;;;;5029611;28;20202;-62
2024/03/31 03:26:45;;;;;;;16.67;4.83;;;12.50;44.90;;;;;;5029081;28;20217;-61
2024/03/31 03:29:12;;;;;;;13.53;5.50;;;12.60;43.70;;;;;;5033858;28;20206;-62
2024/03/31 03:31:37;;;;;;;23.07;5.17;;;12.50;44.20;;;;;;5033640;28;20221;-61
2024/03/31 03:34:04;;;;;;;21.87;5.00;;;12.10;44.40;;;;;;5041551;28;20706;-61
2024/03/31 03:36:29;;;;;;;19.80;5.43;;;12.30;44.80;;;;;;5034005;28;20205;-61
2024/03/31 03:38:56;;;;;;;13.63;4.57;;;11.80;45.20;;;;;;5029538;28;20227;-62
2024/03/31 03:41:23;;;;;;;19.57;4.87;;;12.20;45.50;;;;;;5032731;28;20233;-62
2024/03/31 03:43:49;;;;;;;15.57;5.13;;;11.80;45.50;;;;;;5026264;28;20204;-61
2024/03/31 03:46:15;;;;;;;20.93;5.47;;;11.90;46.10;;;;;;5033960;28;20300;-62
2024/03/31 03:48:41;;;;;;;22.07;5.03;;;12.10;45.50;;;;;;5034023;28;20270;-61
2024/03/31 03:51:07;;;;;;;21.83;4.80;;;11.80;45.90;;;;;;5033598;28;20210;-62
2024/03/31 03:53:34;;;;;;;16.93;5.43;;;12.00;45.70;;;;;;5034275;28;20228;-61
2024/03/31 03:55:59;;;;;;;20.53;4.33;;;12.30;45.00;;;;;;5034059;28;20209;-62
2024/03/31 03:58:26;;;;;;;19.57;4.77;;;12.20;45.10;;;;;;5029224;28;20271;-61
2024/03/31 04:00:51;;;;;;;20.83;4.63;;;12.30;45.00;;;;;;5034617;28;20225;-61
2024/03/31 04:03:18;;;;;;;19.67;5.07;;;12.40;44.60;;;;;;5033151;28;20236;-62
2024/03/31 04:05:43;;;;;;;16.83;4.23;;;12.20;44.60;;;;;;5036658;28;20596;-62
2024/03/31 04:08:10;;;;;;;16.80;5.37;;;12.10;45.10;;;;;;5031657;28;20202;-61
2024/03/31 04:10:35;;;;;;;16.33;5.87;;;12.00;45.20;;;;;;5034734;28;20205;-62
2024/03/31 04:13:03;;;;;;;20.03;4.93;;;11.60;45.90;;;;;;5032828;28;20229;-61
2024/03/31 04:15:28;;;;;;;16.70;5.73;;;11.80;46.10;;;;;;5029526;28;20208;-61
2024/03/31 04:17:55;;;;;;;18.23;5.13;;;11.90;45.50;;;;;;5026589;28;20216;-61
2024/03/31 04:20:20;;;;;;;14.80;5.03;;;11.30;46.30;;;;;;5033055;28;20442;-62
2024/03/31 04:22:47;;;;;;;17.87;4.63;;;11.60;46.70;;;;;;5036288;28;20226;-62
2024/03/31 04:25:12;;;;;;;21.37;4.97;;;11.60;46.20;;;;;;5037712;28;20215;-61
2024/03/31 04:27:39;;;;;;;15.97;5.23;;;11.90;45.60;;;;;;5038607;28;20292;-62
2024/03/31 04:30:05;;;;;;;20.57;4.67;;;11.90;45.20;;;;;;5040940;28;20212;-62
2024/03/31 04:32:31;;;;;;;19.53;4.63;;;11.60;45.90;;;;;;5041589;28;20771;-61
2024/03/31 04:34:57;;;;;;;19.03;4.60;;;11.80;45.70;;;;;;5032639;28;20206;-62
2024/03/31 04:37:23;;;;;;;20.83;4.90;;;11.70;46.00;;;;;;5040150;28;20205;-62
2024/03/31 04:39:49;;;;;;;17.73;5.23;;;11.70;46.70;;;;;;5041179;28;20205;-62
2024/03/31 04:42:16;;;;;;;21.50;4.80;;;12.00;45.80;;;;;;5041775;28;20719;-62
2024/03/31 04:44:41;;;;;;;23.70;5.53;;;12.00;45.30;;;;;;5038180;28;20209;-61
2024/03/31 04:47:08;;;;;;;13.00;4.30;;;11.90;45.90;;;;;;5037243;28;20701;-62
2024/03/31 04:49:33;;;;;;;18.00;4.90;;;11.40;46.30;;;;;;5037403;28;20274;-61
2024/03/31 04:52:00;;;;;;;21.37;6.47;;;11.50;46.90;;;;;;5032057;28;20599;-61
2024/03/31 04:54:25;;;;;;;19.80;4.47;;;11.70;46.00;;;;;;5036441;28;20223;-61
2024/03/31 04:56:52;;;;;;;20.47;4.93;;;11.90;45.90;;;;;;5037002;28;20288;-61
2024/03/31 04:59:18;;;;;;;16.50;4.63;;;12.00;45.80;;;;;;5036566;28;20620;-62
2024/03/31 05:01:44;;;;;;;22.30;5.77;;;11.90;46.50;;;;;;5036557;28;20229;-62
2024/03/31 05:04:10;;;;;;;19.23;4.47;;;11.70;46.10;;;;;;5036660;28;20291;-61
2024/03/31 05:06:37;;;;;;;18.80;4.63;;;11.60;47.20;;;;;;5036793;28;20545;-61
2024/03/31 05:09:03;;;;;;;16.80;4.27;;;11.70;46.10;;;;;;5025741;28;20210;-61
2024/03/31 05:11:29;;;;;;;17.30;4.67;;;11.90;46.30;;;;;;5032768;28;20220;-61
2024/03/31 05:13:55;;;;;;;15.37;4.40;;;11.90;46.70;;;;;;5032403;28;20783;-62
2024/03/31 05:16:22;;;;;;;20.87;5.10;;;12.00;46.30;;;;;;5036328;28;20215;-61
2024/03/31 05:18:50;;;;;;;15.33;5.33;;;12.10;46.10;;;;;;5036950;28;20205;-61
2024/03/31 05:21:17;;;;;;;20.40;6.67;;;12.10;46.30;;;;;;5036408;28;20255;-61
2024/03/31 05:23:45;;;;;;;16.20;5.27;;;12.10;45.50;;;;;;5037646;28;20212;-61
2024/03/31 05:26:12;;;;;;;28.90;6.87;;;12.10;45.70;;;;;;5030983;28;20208;-61
2024/03/31 05:28:37;;;;;;;30.07;5.57;;;12.20;46.00;;;;;;5028059;28;20569;-62
2024/03/31 05:31:04;;;;;;;16.43;4.80;;;12.10;45.50;;;;;;5036277;28;20207;-61
2024/03/31 05:33:30;;;;;;;18.60;6.23;;;12.00;45.60;;;;;;5036613;28;20704;-62
2024/03/31 05:35:56;;;;;;;18.07;4.67;;;11.60;46.00;;;;;;5035719;28;20234;-61
2024/03/31 05:38:22;;;;;;;13.10;3.90;;;11.70;46.10;;;;;;5036027;28;20580;-62
2024/03/31 05:40:49;;;;;;;18.63;5.13;;;11.80;46.10;;;;;;5035614;28;20229;-61
2024/03/31 05:43:14;;;;;;;20.03;5.40;;;11.70;46.10;;;;;;5036181;28;20260;-61
2024/03/31 05:45:41;;;;;;;22.10;5.70;;;11.70;46.20;;;;;;5022568;28;20202;-61
2024/03/31 05:48:06;;;;;;;23.27;5.13;;;11.80;46.10;;;;;;5027898;28;20212;-61
2024/03/31 05:50:33;;;;;;;19.50;5.80;;;11.70;46.00;;;;;;5035711;28;20289;-61
2024/03/31 05:52:58;;;;;;;26.10;5.20;;;11.80;46.30;;;;;;5038654;28;20233;-61
2024/03/31 05:55:25;;;;;;;24.80;5.63;;;11.90;46.20;;;;;;5036280;28;20201;-60
2024/03/31 05:57:51;;;;;;;14.93;4.63;;;12.00;46.10;;;;;;5035603;28;20224;-61
2024/03/31 06:00:17;;;;;;;24.77;5.83;;;12.20;45.40;;;;;;5034945;28;20212;-61
2024/03/31 06:02:43;;;;;;;18.07;5.37;;;12.00;45.40;;;;;;5025608;28;20615;-61
2024/03/31 06:05:09;;;;;;;17.17;5.50;;;11.80;46.10;;;;;;5019628;28;20213;-61
2024/03/31 06:07:36;;;;;;;24.27;4.97;;;12.00;46.50;;;;;;5033497;28;20220;-61
2024/03/31 06:10:02;;;;;;;17.60;5.33;;;12.10;45.70;;;;;;5037571;28;20204;-61
2024/03/31 06:12:28;;;;;;;17.50;4.97;;;11.90;46.00;;;;;;5026587;28;20236;-60
2024/03/31 06:14:54;;;;;;;21.37;5.00;;;12.00;46.00;;;;;;5035211;28;20284;-61
2024/03/31 06:17:20;;;;;;;19.70;4.73;;;12.20;45.70;;;;;;5035505;28;20564;-61
2024/03/31 06:19:46;;;;;;;19.53;5.70;;;12.20;45.50;;;;;;5035230;28;20262;-61
2024/03/31 06:22:12;;;;;;;22.03;5.87;;;12.10;45.70;;;;;;5034646;28;20233;-61
2024/03/31 06:24:39;;;;;;;21.50;4.93;;;12.10;46.40;;;;;;5031429;28;20239;-61
2024/03/31 06:27:04;;;;;;;18.57;4.93;;;12.20;46.20;;;;;;5025801;28;20286;-63
2024/03/31 06:29:31;;;;;;;22.97;5.33;;;12.20;45.70;;;;;;5030106;28;20719;-61
2024/03/31 06:31:56;;;;;;;16.97;5.10;;;12.30;45.50;;;;;;5026388;28;20255;-61
2024/03/31 06:34:23;;;;;;;19.47;4.93;;;12.30;46.20;;;;;;5024142;28;20683;-61
2024/03/31 06:36:49;;;;;;;17.87;5.03;;;12.10;46.40;;;;;;5033520;28;20240;-61
2024/03/31 06:39:15;;;;;;;19.83;4.50;;;12.30;45.80;;;;;;5030499;28;20691;-61
2024/03/31 06:41:41;;;;;;;23.37;6.90;;;12.30;45.80;;;;;;5034458;28;20244;-61
2024/03/31 06:44:08;;;;;;;17.17;5.20;;;11.80;45.70;;;;;;5033931;28;20204;-61
2024/03/31 06:46:33;;;;;;;26.33;5.77;;;12.10;46.30;;;;;;5032658;28;20216;-61
2024/03/31 06:49:00;;;;;;;18.00;5.20;;;12.00;45.40;;;;;;5029590;28;20211;-61
2024/03/31 06:51:26;;;;;;;20.47;5.57;;;12.00;46.30;;;;;;5032876;28;20367;-61
2024/03/31 06:53:52;;;;;;;18.33;5.17;;;12.00;46.30;;;;;;5026927;28;20233;-61
2024/03/31 06:56:18;;;;;;;21.60;5.10;;;12.20;46.40;;;;;;5032597;28;20225;-61
2024/03/31 06:58:44;;;;;;;26.97;5.27;;;12.10;45.80;;;;;;5033998;28;20650;-61
2024/03/31 07:01:11;;;;;;;18.43;5.33;;;;;;;;;;5026197;28;20243;-61
2024/03/31 07:03:37;;;;;;;16.47;5.47;;;12.10;45.50;;;;;;5028967;28;20211;-61
2024/03/31 07:06:03;;;;;;;23.87;6.67;;;12.10;46.00;;;;;;5027053;28;20209;-60
2024/03/31 07:08:30;;;;;;;26.77;5.23;;;12.10;46.00;;;;;;5028767;28;20224;-61
2024/03/31 07:10:55;;;;;;;25.33;6.37;;;12.20;45.50;;;;;;5028437;28;20200;-61
2024/03/31 07:13:22;;;;;;;15.43;5.20;;;12.20;45.90;;;;;;5033955;28;20770;-61
2024/03/31 07:15:47;;;;;;;18.83;5.57;;;12.20;45.60;;;;;;5028238;28;20579;-61
2024/03/31 07:18:14;;;;;;;20.63;4.90;;;12.20;45.90;;;;;;5032820;28;20291;-61
2024/03/31 07:20:40;;;;;;;17.77;5.07;;;12.20;46.00;;;;;;5032564;28;20235;-61
2024/03/31 07:23:06;;;;;;;22.37;6.00;;;12.20;45.80;;;;;;5026918;28;20577;-61
2024/03/31 07:25:32;;;;;;;21.03;5.03;;;12.10;46.10;;;;;;5027418;28;20211;-61
2024/03/31 07:27:58;;;;;;;16.60;5.00;;;12.30;45.80;;;;;;5036438;28;20233;-61
2024/03/31 07:30:24;;;;;;;13.10;4.23;;;12.30;45.50;;;;;;5033735;28;20216;-61
2024/03/31 07:32:52;;;;;;;21.73;4.07;;;12.30;45.50;;;;;;5039907;28;20587;-61
2024/03/31 07:35:17;;;;;;;21.53;5.53;;;12.40;45.20;;;;;;5036179;28;20209;-61
2024/03/31 07:37:44;;;;;;;16.97;5.63;;;12.30;45.20;;;;;;5006794;28;20259;-61
2024/03/31 07:40:10;;;;;;;20.47;4.80;;;12.40;45.30;;;;;;5059112;28;20212;-61
2024/03/31 07:42:36;;;;;;;19.07;5.40;;;12.40;44.90;;;;;;5047840;28;20695;-61
2024/03/31 07:45:02;;;;;;;22.40;5.83;;;12.30;45.20;;;;;;5041618;28;20681;-61
2024/03/31 07:47:28;;;;;;;27.73;5.67;;;12.30;45.40;;;;;;5051997;28;20212;-60
2024/03/31 07:49:54;;;;;;;14.80;5.43;;;12.40;60.80;;;;;;5053899;28;20205;-61
2024/03/31 07:52:20;;;;;;;17.83;5.13;;;12.40;64.20;;;;;;5054014;28;20275;-61
2024/03/31 07:54:46;;;;;;;28.50;6.67;;;12.40;63.20;;;;;;5046344;28;20222;-61
2024/03/31 07:57:13;;;;;;;18.10;4.23;;;12.50;45.00;;;;;;5048355;28;20290;-60
2024/03/31 07:59:38;;;;;;;18.50;4.73;;;12.20;45.80;;;;;;5046658;28;20581;-61
2024/03/31 08:02:05;;;;;;;17.50;5.43;;;12.40;45.50;;;;;;5050481;28;20232;-60
2024/03/31 08:04:31;;;;;;;15.93;4.90;;;;;;;;;;5051219;28;20214;-61
2024/03/31 08:06:57;;;;;;;21.37;5.20;;;12.10;45.20;;;;;;5054398;28;20216;-61
2024/03/31 08:09:23;;;;;;;26.17;6.43;;;12.20;45.40;;;;;;5052700;28;20215;-61
2024/03/31 08:11:50;;;;;;;17.00;5.07;;;12.20;45.50;;;;;;5053932;28;20220;-60
2024/03/31 08:14:15;;;;;;;23.13;6.47;;;11.90;46.20;;;;;;5057479;28;20208;-60
2024/03/31 08:16:42;;;;;;;23.07;5.90;;;12.10;46.40;;;;;;5055293;28;20738;-61
2024/03/31 08:19:07;;;;;;;15.57;4.37;;;12.30;45.50;;;;;;5052911;28;20226;-60
2024/03/31 08:21:34;;;;;;;18.20;5.10;;;12.30;45.60;;;;;;5054638;28;20234;-61
2024/03/31 08:24:00;;;;;;;16.90;5.23;;;12.20;45.50;;;;;;5045186;28;20205;-60
2024/03/31 08:26:26;;;;;;;18.33;5.10;;;12.40;45.70;;;;;;5041662;28;20575;-61
2024/03/31 08:28:52;;;;;;;21.07;5.07;;;12.50;44.90;;;;;;5050092;28;20931;-61
2024/03/31 08:31:18;;;;;;;21.57;5.33;;;12.50;45.10;;;;;;5044194;28;20291;-61
2024/03/31 08:33:44;;;;;;;18.20;6.03;;;12.50;44.70;;;;;;5052878;28;20208;-61
2024/03/31 08:36:11;;;;;;;22.20;4.77;;;12.50;44.90;;;;;;5051147;28;20563;-60
2024/03/31 08:38:37;;;;;;;22.10;5.47;;;12.60;44.80;;;;;;5045307;28;20631;-61
2024/03/31 08:41:03;;;;;;;19.40;5.70;;;12.70;44.70;;;;;;5044934;28;20231;-61
2024/03/31 08:43:29;;;;;;;21.77;5.70;;;;;;;;;;5051312;28;20224;-61
2024/03/31 08:45:56;;;;;;;25.33;6.07;;;12.50;44.00;;;;;;5051296;28;20251;-61
2024/03/31 08:48:21;;;;;;;21.63;4.73;;;12.40;44.60;;;;;;5056429;28;20212;-61
2024/03/31 08:50:48;;;;;;;24.70;5.37;;;12.50;44.70;;;;;;5052859;28;20629;-61
2024/03/31 08:53:13;;;;;;;20.03;5.73;;;12.50;44.40;;;;;;5056126;28;20247;-61
2024/03/31 08:55:41;;;;;;;22.10;5.03;;;12.30;44.80;;;;;;5046066;28;20200;-62
2024/03/31 08:58:06;;;;;;;20.97;5.27;;;12.30;45.20;;;;;;5055546;28;20343;-62
2024/03/31 09:00:33;;;;;;;19.93;5.10;;;12.40;45.40;;;;;;5046507;28;20204;-61
2024/03/31 09:02:58;;;;;;;19.57;4.93;;;12.70;45.40;;;;;;5052918;28;20510;-61
2024/03/31 09:05:25;;;;;;;25.37;5.23;;;;;;;;;;5054446;28;20205;-61
2024/03/31 09:07:51;;;;;;;20.13;4.63;;;13.00;43.10;;;;;;5055291;28;20209;-61
2024/03/31 09:10:18;;;;;;;25.23;5.73;;;12.90;43.30;;;;;;5051951;28;20754;-62
2024/03/31 09:12:44;;;;;;;21.07;5.07;;;12.70;44.20;;;;;;5042609;28;20236;-61
2024/03/31 09:15:10;;;;;;;24.77;6.60;;;12.70;43.90;;;;;;5049623;28;20258;-61
2024/03/31 09:17:36;;;;;;;13.23;4.17;;;12.80;65.20;;;;;;5052954;28;20205;-61
2024/03/31 09:20:03;;;;;;;17.67;4.63;;;13.00;49.50;;;;;;5048133;28;20201;-61
2024/03/31 09:22:28;;;;;;;26.97;5.77;;;13.10;48.00;;;;;;5052081;28;20233;-61
2024/03/31 09:24:55;;;;;;;18.30;4.53;;;13.10;59.30;;;;;;5052969;28;20753;-60
2024/03/31 09:27:21;;;;;;;20.63;5.10;;;13.00;64.20;;;;;;5049935;28;20217;-60
2024/03/31 09:29:48;;;;;;;22.07;5.90;;;;;;;;;;5050130;28;20238;-61
2024/03/31 09:32:14;;;;;;;17.80;5.00;;;;;;;;;;5054315;28;20247;-61
2024/03/31 09:34:42;;;;;;;21.07;4.70;;;;;;;;;;5053875;28;20455;-62
2024/03/31 09:37:08;;;;;;;19.83;5.07;;;;;;;;;;5050601;28;20215;-58
2024/03/31 09:39:34;;;;;;;19.60;5.37;;;13.70;53.30;;;;;;5048825;28;20198;-60
2024/03/31 09:42:00;;;;;;;21.43;5.57;;;13.80;40.20;;;;;;5049388;28;20703;-60
2024/03/31 09:44:27;;;;;;;17.87;5.07;;;;;;;;;;5045563;28;20218;-60
2024/03/31 09:46:53;;;;;;;20.37;5.67;;;;;;;;;;5051453;28;20206;-59
2024/03/31 09:49:20;;;;;;;16.93;4.70;;;;;;;;;;5048993;28;20199;-60
2024/03/31 09:51:46;;;;;;;18.23;5.40;;;14.40;88.30;;;;;;5047674;28;20234;-60
2024/03/31 09:54:13;;;;;;;19.17;5.13;;;;;;;;;;5049869;28;20202;-60
2024/03/31 09:56:39;;;;;;;19.17;4.93;;;14.30;74.50;;;;;;5048767;28;20212;-61
2024/03/31 09:59:05;;;;;;;14.80;4.77;;;14.40;39.20;;;;;;5053298;28;20249;-61
2024/03/31 10:01:31;;;;;;;13.93;4.73;;;14.50;39.90;;;;;;5047929;28;20692;-61
2024/03/31 10:03:58;;;;;;;23.53;5.83;;;14.70;39.40;;;;;;5050608;28;20294;-60
2024/03/31 10:06:23;;;;;;;15.97;4.73;;;14.90;37.90;;;;;;5050219;28;20240;-61
2024/03/31 10:08:50;;;;;;;26.33;5.97;;;15.10;38.80;;;;;;5044782;28;20301;-61
2024/03/31 10:11:15;;;;;;;20.67;5.50;;;15.30;54.20;;;;;;5048176;28;20308;-61
2024/03/31 10:13:42;;;;;;;21.60;4.77;;;15.30;37.80;;;;;;5045045;28;20228;-60
2024/03/31 10:16:08;;;;;;;17.13;4.40;;;15.20;38.80;;;;;;5052975;28;20233;-61
2024/03/31 10:18:34;;;;;;;17.43;4.90;;;15.10;39.10;;;;;;5020717;28;20661;-60
2024/03/31 10:21:00;;;;;;;20.50;4.80;;;15.20;39.10;;;;;;5025643;28;20686;-58
2024/03/31 10:23:26;;;;;;;19.57;4.83;;;15.30;40.00;;;;;;5035501;28;20284;-59
2024/03/31 10:25:52;;;;;;;18.53;4.03;;;15.30;39.40;;;;;;5042438;28;20223;-59
2024/03/31 10:28:18;;;;;;;18.80;4.47;;;15.20;39.40;;;;;;5047711;28;20201;-59
2024/03/31 10:30:44;;;;;;;17.30;5.00;;;15.20;39.90;;;;;;5048198;28;20201;-59
2024/03/31 10:33:11;;;;;;;14.40;4.50;;;15.40;40.00;;;;;;5049201;28;20222;-59
2024/03/31 10:35:37;;;;;;;21.87;4.53;;;;;;;;;;5041984;28;20220;-58
2024/03/31 10:38:03;;;;;;;23.73;5.37;;;15.70;38.60;;;;;;5040443;28;20201;-59
2024/03/31 10:40:29;;;;;;;14.77;5.23;;;15.80;40.30;;;;;;5048277;28;20206;-58
2024/03/31 10:42:55;;;;;;;16.27;4.37;;;15.90;38.40;;;;;;5041674;28;20236;-57
2024/03/31 10:45:21;;;;;;;15.07;5.20;;;16.10;39.70;;;;;;5034883;28;20317;-58
2024/03/31 10:47:48;;;;;;;24.73;4.73;;;16.40;37.90;;;;;;5044664;28;20322;-59
2024/03/31 10:50:13;;;;;;;14.07;4.70;;;16.50;37.50;;;;;;5049135;28;20206;-57
2024/03/31 10:52:40;;;;;;;15.33;4.40;;;;;;;;;;5047508;28;20227;-60
2024/03/31 10:55:06;;;;;;;19.37;4.60;;;16.90;36.00;;;;;;5050478;28;20620;-60
2024/03/31 10:57:34;;;;;;;17.13;4.47;;;17.40;35.00;;;;;;5049908;28;20215;-59
2024/03/31 10:59:59;;;;;;;14.07;3.60;;;17.50;37.10;;;;;;5051889;28;20217;-60
2024/03/31 11:02:26;;;;;;;14.57;4.90;;;17.60;35.60;;;;;;5050553;28;20228;-60
2024/03/31 11:04:52;;;;;;;16.53;4.67;;;17.40;35.50;;;;;;5041845;28;20227;-60
2024/03/31 11:07:18;;;;;;;23.43;4.63;;;17.10;35.70;;;;;;5053621;28;20197;-60
2024/03/31 11:09:44;;;;;;;12.77;4.90;;;17.20;36.30;;;;;;5050282;28;20207;-59
2024/03/31 11:12:11;;;;;;;12.90;4.80;;;;;;;;;;5043730;28;20304;-60
2024/03/31 11:14:37;;;;;;;12.63;4.07;;;16.80;36.80;;;;;;5048419;28;20575;-60
2024/03/31 11:17:03;;;;;;;17.70;4.37;;;16.80;38.10;;;;;;5051410;28;20227;-61
2024/03/31 11:19:29;;;;;;;18.83;4.57;;;16.90;38.90;;;;;;5050152;28;20749;-60
2024/03/31 11:21:56;;;;;;;17.20;4.53;;;17.00;38.30;;;;;;5045259;28;20377;-60
2024/03/31 11:24:21;;;;;;;18.83;5.13;;;17.00;38.40;;;;;;5051299;28;20717;-61
2024/03/31 11:26:48;;;;;;;15.47;4.97;;;17.30;39.60;;;;;;5051854;28;20200;-60
2024/03/31 11:29:13;;;;;;;16.63;4.23;;;17.70;38.80;;;;;;5051241;28;20208;-60
2024/03/31 11:31:40;;;;;;;16.90;4.53;;;18.00;37.60;;;;;;5044487;28;20222;-61
2024/03/31 11:34:06;;;;;;;18.60;4.53;;;18.20;36.60;;;;;;5044390;28;20205;-64
2024/03/31 11:36:34;;;;;;;18.40;3.77;;;;;;;;;;5042356;28;20289;-58
2024/03/31 11:39:00;;;;;;;16.97;4.03;;;;;;;;;;5053251;28;20701;-59
2024/03/31 11:41:27;;;;;;;19.67;4.93;;;;;;;;;;5057708;28;20236;-59
2024/03/31 11:43:53;;;;;;;15.80;4.03;;;;;;;;;;5053881;28;20202;-59
2024/03/31 11:46:20;;;;;;;11.23;3.73;;;;;;;;;;5057334;28;20202;-59
2024/03/31 11:48:46;;;;;;;10.77;3.30;;;;;;;;;;5047462;28;20205;-61
2024/03/31 11:51:14;;;;;;;8.43;3.40;;;;;;;;;;5043472;28;20286;-61
2024/03/31 11:53:40;;;;;;;15.90;4.13;;;;;;;;;;5061501;28;20267;-60
2024/03/31 11:56:07;;;;;;;16.73;4.17;;;;;;;;;;5044709;28;20302;-61
2024/03/31 11:58:33;;;;;;;20.07;4.93;;;;;;;;;;5036175;28;20297;-57
2024/03/31 12:01:00;;;;;;;16.07;3.50;;;;;;;;;;5055820;28;20211;-60
2024/03/31 12:03:26;;;;;;;18.73;5.10;;;;;;;;;;5053097;28;20313;-59
2024/03/31 12:05:53;;;;;;;15.63;5.40;;;;;;;;;;5055134;28;20202;-59
2024/03/31 12:08:19;;;;;;;14.70;4.27;;;;;;;;;;5053992;28;20207;-59
2024/03/31 12:10:46;;;;;;;15.40;4.37;;;;;;;;;;5053831;28;20673;-60
2024/03/31 12:13:13;;;;;;;19.53;4.60;;;;;;;;;;5058548;28;20240;-60
2024/03/31 12:15:40;;;;;;;16.90;3.90;;;;;;;;;;5053637;28;20202;-59
2024/03/31 12:18:06;;;;;;;9.90;3.47;;;;;;;;;;5035955;28;20243;-59
2024/03/31 12:20:33;;;;;;;11.20;3.30;;;;;;;;;;5032589;28;20698;-60
2024/03/31 12:22:59;;;;;;;9.13;2.93;;;;;;;;;;5048040;28;20229;-59
2024/03/31 12:25:26;;;;;;;11.43;3.27;;;;;;;;;;5033974;28;20207;-60
2024/03/31 12:27:52;;;;;;;9.70;3.43;;;;;;;;;;5030646;28;20575;-60
2024/03/31 12:30:20;;;;;;;12.87;3.07;;;;;;;;;;5035368;28;20206;-59
2024/03/31 12:32:46;;;;;;;14.97;2.80;;;;;;;;;;5033136;28;20730;-58
2024/03/31 12:35:13;;;;;;;7.40;2.73;;;;;;;;;;5032521;28;20200;-62
2024/03/31 12:37:39;;;;;;;7.93;3.20;;;;;;;;;;5030881;28;20216;-61
2024/03/31 12:40:07;;;;;;;9.00;3.40;;;;;;;;;;5046688;28;20235;-61
2024/03/31 12:42:33;;;;;;;9.50;3.30;;;;;;;;;;5037162;28;20237;-59
2024/03/31 12:45:00;;;;;;;10.80;2.87;;;;;;;;;;5037268;28;20204;-59
2024/03/31 12:47:26;;;;;;;10.37;2.70;;;;;;;;;;5033479;28;20208;-60
2024/03/31 12:49:53;;;;;;;12.53;3.53;;;;;;;;;;5040581;28;20211;-58